sensor_id;sensor_type;location;lat;lon;timestamp;pressure;altitude;pressure_sealevel;temperature;humidity
66486;BME280;53303;47.476;8.084;2023-07-22T00:00:13;95373.28;;;24.22;46.17
66486;BME280;53303;47.476;8.084;2023-07-22T00:02:42;95368.47;;;24.22;46.18
66486;BME280;53303;47.476;8.084;2023-07-22T00:05:08;95373.28;;;24.22;46.29
66486;BME280;53303;47.476;8.084;2023-07-22T00:07:35;95366.97;;;24.21;46.23
66486;BME280;53303;47.476;8.084;2023-07-22T00:10:01;95367.72;;;24.22;46.33
66486;BME280;53303;47.476;8.084;2023-07-22T00:12:26;95373.28;;;24.22;46.32
66486;BME280;53303;47.476;8.084;2023-07-22T00:14:52;95377.38;;;24.21;46.27
66486;BME280;53303;47.476;8.084;2023-07-22T00:17:20;95369.22;;;24.23;46.14
66486;BME280;53303;47.476;8.084;2023-07-22T00:19:49;95363.97;;;24.19;46.00
66486;BME280;53303;47.476;8.084;2023-07-22T00:22:17;95363.44;;;24.21;46.13
66486;BME280;53303;47.476;8.084;2023-07-22T00:24:42;95357.22;;;24.14;46.28
66486;BME280;53303;47.476;8.084;2023-07-22T00:27:08;95345.66;;;24.10;46.20
66486;BME280;53303;47.476;8.084;2023-07-22T00:29:37;95363.44;;;24.21;46.08
66486;BME280;53303;47.476;8.084;2023-07-22T00:32:04;95342.66;;;24.08;45.97
66486;BME280;53303;47.476;8.084;2023-07-22T00:34:32;95346.91;;;24.09;45.86
66486;BME280;53303;47.476;8.084;2023-07-22T00:36:57;95359.69;;;24.18;46.12
66486;BME280;53303;47.476;8.084;2023-07-22T00:39:25;95356.25;;;24.12;46.17
66486;BME280;53303;47.476;8.084;2023-07-22T00:41:50;95343.19;;;24.07;46.01
66486;BME280;53303;47.476;8.084;2023-07-22T00:44:24;95352.94;;;24.13;45.94
66486;BME280;53303;47.476;8.084;2023-07-22T00:46:50;95349.91;;;24.11;45.66
66486;BME280;53303;47.476;8.084;2023-07-22T00:49:19;95357.41;;;24.17;45.70
66486;BME280;53303;47.476;8.084;2023-07-22T00:51:44;95344.13;;;24.09;45.75
66486;BME280;53303;47.476;8.084;2023-07-22T00:54:10;95356.69;;;24.16;45.62
66486;BME280;53303;47.476;8.084;2023-07-22T00:56:36;95337.81;;;24.09;45.53
66486;BME280;53303;47.476;8.084;2023-07-22T00:59:04;95344.66;;;24.08;45.39
66486;BME280;53303;47.476;8.084;2023-07-22T01:01:32;95355.94;;;24.16;45.30
66486;BME280;53303;47.476;8.084;2023-07-22T01:03:57;95352.38;;;24.15;45.33
66486;BME280;53303;47.476;8.084;2023-07-22T01:06:23;95348.84;;;24.14;45.34
66486;BME280;53303;47.476;8.084;2023-07-22T01:08:54;95348.09;;;24.14;45.24
66486;BME280;53303;47.476;8.084;2023-07-22T01:11:19;95346.59;;;24.13;45.49
66486;BME280;53303;47.476;8.084;2023-07-22T01:13:45;95329.91;;;24.00;45.29
66486;BME280;53303;47.476;8.084;2023-07-22T01:16:10;95347.91;;;24.12;45.09
66486;BME280;53303;47.476;8.084;2023-07-22T01:18:36;95337.41;;;24.05;45.18
66486;BME280;53303;47.476;8.084;2023-07-22T01:21:06;95352.16;;;24.13;45.05
66486;BME280;53303;47.476;8.084;2023-07-22T01:23:31;95344.34;;;24.11;45.14
66486;BME280;53303;47.476;8.084;2023-07-22T01:25:57;95342.84;;;24.10;45.20
66486;BME280;53303;47.476;8.084;2023-07-22T01:28:24;95329.91;;;24.00;44.94
66486;BME280;53303;47.476;8.084;2023-07-22T01:30:49;95332.97;;;24.09;44.99
66486;BME280;53303;47.476;8.084;2023-07-22T01:33:17;95341.34;;;24.09;44.75
66486;BME280;53303;47.476;8.084;2023-07-22T01:35:42;95320.34;;;23.95;44.95
66486;BME280;53303;47.476;8.084;2023-07-22T01:38:08;95330.00;;;24.07;44.92
66486;BME280;53303;47.476;8.084;2023-07-22T01:40:33;95332.56;;;24.05;44.67
66486;BME280;53303;47.476;8.084;2023-07-22T01:43:01;95333.50;;;24.08;44.92
66486;BME280;53303;47.476;8.084;2023-07-22T01:45:26;95348.63;;;23.99;45.02
66486;BME280;53303;47.476;8.084;2023-07-22T01:47:52;95353.56;;;24.06;44.75
66486;BME280;53303;47.476;8.084;2023-07-22T01:50:17;95347.25;;;24.06;44.81
66486;BME280;53303;47.476;8.084;2023-07-22T01:52:45;95340.41;;;24.07;44.77
66486;BME280;53303;47.476;8.084;2023-07-22T01:55:13;95331.91;;;23.99;44.55
66486;BME280;53303;47.476;8.084;2023-07-22T01:57:41;95322.19;;;23.92;44.43
66486;BME280;53303;47.476;8.084;2023-07-22T02:00:07;95327.84;;;24.00;44.39
66486;BME280;53303;47.476;8.084;2023-07-22T02:02:36;95342.97;;;24.05;44.49
66486;BME280;53303;47.476;8.084;2023-07-22T02:05:04;95332.69;;;24.00;44.46
66486;BME280;53303;47.476;8.084;2023-07-22T02:07:32;95339.22;;;24.02;44.74
66486;BME280;53303;47.476;8.084;2023-07-22T02:10:00;95337.16;;;24.03;44.49
66486;BME280;53303;47.476;8.084;2023-07-22T02:12:25;95343.50;;;24.03;44.37
66486;BME280;53303;47.476;8.084;2023-07-22T02:14:51;95326.91;;;23.98;44.38
66486;BME280;53303;47.476;8.084;2023-07-22T02:17:16;95321.75;;;24.02;44.68
66486;BME280;53303;47.476;8.084;2023-07-22T02:19:42;95326.56;;;24.01;44.59
66486;BME280;53303;47.476;8.084;2023-07-22T02:22:07;95319.50;;;24.00;44.43
66486;BME280;53303;47.476;8.084;2023-07-22T02:24:32;95327.09;;;24.00;44.33
66486;BME280;53303;47.476;8.084;2023-07-22T02:26:58;95327.44;;;23.96;44.29
66486;BME280;53303;47.476;8.084;2023-07-22T02:29:24;95325.81;;;24.01;44.09
66486;BME280;53303;47.476;8.084;2023-07-22T02:31:49;95336.00;;;23.98;44.04
66486;BME280;53303;47.476;8.084;2023-07-22T02:34:15;95317.88;;;23.91;43.95
66486;BME280;53303;47.476;8.084;2023-07-22T02:36:43;95329.69;;;23.98;44.04
66486;BME280;53303;47.476;8.084;2023-07-22T02:39:08;95317.66;;;23.89;44.07
66486;BME280;53303;47.476;8.084;2023-07-22T02:41:36;95327.63;;;23.98;43.97
66486;BME280;53303;47.476;8.084;2023-07-22T02:44:02;95320.56;;;23.97;43.96
66486;BME280;53303;47.476;8.084;2023-07-22T02:46:28;95323.44;;;23.91;43.98
66486;BME280;53303;47.476;8.084;2023-07-22T02:48:53;95325.91;;;23.95;43.55
66486;BME280;53303;47.476;8.084;2023-07-22T02:51:20;95326.66;;;23.95;43.75
66486;BME280;53303;47.476;8.084;2023-07-22T02:53:46;95319.59;;;23.94;43.81
66486;BME280;53303;47.476;8.084;2023-07-22T02:56:12;95306.31;;;23.87;43.66
66486;BME280;53303;47.476;8.084;2023-07-22T02:58:38;95305.34;;;23.85;43.70
66486;BME280;53303;47.476;8.084;2023-07-22T03:01:04;95322.91;;;23.93;43.55
66486;BME280;53303;47.476;8.084;2023-07-22T03:03:30;95324.44;;;23.94;43.51
66486;BME280;53303;47.476;8.084;2023-07-22T03:05:59;95311.69;;;23.85;43.36
66486;BME280;53303;47.476;8.084;2023-07-22T03:08:27;95319.38;;;23.92;43.20
66486;BME280;53303;47.476;8.084;2023-07-22T03:10:52;95316.59;;;23.92;43.39
66486;BME280;53303;47.476;8.084;2023-07-22T03:13:18;95315.41;;;23.88;43.33
66486;BME280;53303;47.476;8.084;2023-07-22T03:15:44;95321.41;;;23.92;43.37
66486;BME280;53303;47.476;8.084;2023-07-22T03:18:09;95324.75;;;23.90;43.06
66486;BME280;53303;47.476;8.084;2023-07-22T03:20:38;95319.72;;;23.89;43.13
66486;BME280;53303;47.476;8.084;2023-07-22T03:23:05;95322.50;;;23.89;43.03
66486;BME280;53303;47.476;8.084;2023-07-22T03:25:30;95322.81;;;23.85;43.17
66486;BME280;53303;47.476;8.084;2023-07-22T03:27:56;95314.88;;;23.89;42.88
66486;BME280;53303;47.476;8.084;2023-07-22T03:30:22;95313.78;;;23.79;42.82
66486;BME280;53303;47.476;8.084;2023-07-22T03:32:48;95326.56;;;23.88;42.84
66486;BME280;53303;47.476;8.084;2023-07-22T03:35:17;95324.09;;;23.84;42.87
66486;BME280;53303;47.476;8.084;2023-07-22T03:37:42;95325.06;;;23.87;42.98
66486;BME280;53303;47.476;8.084;2023-07-22T03:40:09;95322.63;;;23.83;42.88
66486;BME280;53303;47.476;8.084;2023-07-22T03:42:56;95319.81;;;23.83;42.80
66486;BME280;53303;47.476;8.084;2023-07-22T03:45:24;95320.03;;;23.85;42.81
66486;BME280;53303;47.476;8.084;2023-07-22T03:48:01;95315.00;;;23.84;42.88
66486;BME280;53303;47.476;8.084;2023-07-22T03:50:27;95320.03;;;23.85;42.58
66486;BME280;53303;47.476;8.084;2023-07-22T03:52:52;95326.13;;;23.84;42.57
66486;BME280;53303;47.476;8.084;2023-07-22T03:55:18;95323.44;;;23.78;42.75
66486;BME280;53303;47.476;8.084;2023-07-22T03:57:44;95335.25;;;23.84;42.77
66486;BME280;53303;47.476;8.084;2023-07-22T04:00:10;95330.72;;;23.81;42.49
66486;BME280;53303;47.476;8.084;2023-07-22T04:02:36;95318.19;;;23.74;42.66
66486;BME280;53303;47.476;8.084;2023-07-22T04:05:01;95323.88;;;23.82;42.55
66486;BME280;53303;47.476;8.084;2023-07-22T04:07:27;95310.34;;;23.73;42.65
66486;BME280;53303;47.476;8.084;2023-07-22T04:09:52;95333.53;;;23.81;42.40
66486;BME280;53303;47.476;8.084;2023-07-22T04:12:20;95327.22;;;23.81;42.33
66486;BME280;53303;47.476;8.084;2023-07-22T04:14:45;95321.50;;;23.73;42.48
66486;BME280;53303;47.476;8.084;2023-07-22T04:17:11;95331.22;;;23.80;42.28
66486;BME280;53303;47.476;8.084;2023-07-22T04:19:36;95325.44;;;23.77;42.50
66486;BME280;53303;47.476;8.084;2023-07-22T04:22:04;95340.91;;;23.79;42.39
66486;BME280;53303;47.476;8.084;2023-07-22T04:24:30;95335.97;;;23.71;42.36
66486;BME280;53303;47.476;8.084;2023-07-22T04:26:56;95334.34;;;23.76;42.43
66486;BME280;53303;47.476;8.084;2023-07-22T04:29:22;95337.91;;;23.76;42.17
66486;BME280;53303;47.476;8.084;2023-07-22T04:31:47;95337.91;;;23.76;42.46
66486;BME280;53303;47.476;8.084;2023-07-22T04:34:13;95335.44;;;23.73;42.30
66486;BME280;53303;47.476;8.084;2023-07-22T04:36:38;95341.22;;;23.75;42.43
66486;BME280;53303;47.476;8.084;2023-07-22T04:39:04;95339.91;;;23.76;42.33
66486;BME280;53303;47.476;8.084;2023-07-22T04:41:33;95339.16;;;23.75;42.24
66486;BME280;53303;47.476;8.084;2023-07-22T04:43:58;95336.38;;;23.75;42.16
66486;BME280;53303;47.476;8.084;2023-07-22T04:46:25;95342.50;;;23.74;42.08
66486;BME280;53303;47.476;8.084;2023-07-22T04:48:56;95346.78;;;23.75;42.24
66486;BME280;53303;47.476;8.084;2023-07-22T04:51:23;95336.06;;;23.66;42.09
66486;BME280;53303;47.476;8.084;2023-07-22T04:53:48;95351.38;;;23.72;42.13
66486;BME280;53303;47.476;8.084;2023-07-22T04:56:14;95349.34;;;23.73;42.34
66486;BME280;53303;47.476;8.084;2023-07-22T04:58:39;95340.66;;;23.63;42.33
66486;BME280;53303;47.476;8.084;2023-07-22T05:01:05;95356.22;;;23.72;42.08
66486;BME280;53303;47.476;8.084;2023-07-22T05:03:30;95348.69;;;23.67;42.24
66486;BME280;53303;47.476;8.084;2023-07-22T05:05:56;95329.63;;;23.57;42.23
66486;BME280;53303;47.476;8.084;2023-07-22T05:08:23;95351.16;;;23.70;42.19
66486;BME280;53303;47.476;8.084;2023-07-22T05:10:48;95330.91;;;23.56;42.39
66486;BME280;53303;47.476;8.084;2023-07-22T05:13:17;95354.72;;;23.71;42.33
66486;BME280;53303;47.476;8.084;2023-07-22T05:15:42;95344.75;;;23.62;42.41
66486;BME280;53303;47.476;8.084;2023-07-22T05:18:08;95354.47;;;23.69;42.55
66486;BME280;53303;47.476;8.084;2023-07-22T05:20:37;95354.78;;;23.65;42.37
66486;BME280;53303;47.476;8.084;2023-07-22T05:23:02;95361.34;;;23.68;42.42
66486;BME280;53303;47.476;8.084;2023-07-22T05:25:28;95361.56;;;23.70;42.38
66486;BME280;53303;47.476;8.084;2023-07-22T05:27:55;95354.78;;;23.65;42.48
66486;BME280;53303;47.476;8.084;2023-07-22T05:30:21;95352.13;;;23.60;42.46
66486;BME280;53303;47.476;8.084;2023-07-22T05:32:46;95370.44;;;23.68;42.46
66486;BME280;53303;47.476;8.084;2023-07-22T05:35:11;95350.09;;;23.60;42.60
66486;BME280;53303;47.476;8.084;2023-07-22T05:37:39;95363.91;;;23.66;42.65
66486;BME280;53303;47.476;8.084;2023-07-22T05:40:05;95357.06;;;23.67;42.94
66486;BME280;53303;47.476;8.084;2023-07-22T05:42:32;95353.94;;;23.57;42.83
66486;BME280;53303;47.476;8.084;2023-07-22T05:44:58;95372.81;;;23.64;42.90
66486;BME280;53303;47.476;8.084;2023-07-22T05:47:23;95371.19;;;23.69;42.93
66486;BME280;53303;47.476;8.084;2023-07-22T05:49:53;95370.75;;;23.65;42.94
66486;BME280;53303;47.476;8.084;2023-07-22T05:52:19;95362.19;;;23.63;43.33
66486;BME280;53303;47.476;8.084;2023-07-22T05:54:44;95340.28;;;23.40;43.21
66486;BME280;53303;47.476;8.084;2023-07-22T05:57:10;95374.09;;;23.63;43.38
66486;BME280;53303;47.476;8.084;2023-07-22T05:59:35;95374.59;;;23.62;43.46
66486;BME280;53303;47.476;8.084;2023-07-22T06:02:04;95370.13;;;23.59;43.48
66486;BME280;53303;47.476;8.084;2023-07-22T06:04:34;95378.81;;;23.68;43.42
66486;BME280;53303;47.476;8.084;2023-07-22T06:07:02;95359.84;;;23.53;43.46
66486;BME280;53303;47.476;8.084;2023-07-22T06:09:28;95378.06;;;23.68;43.80
66486;BME280;53303;47.476;8.084;2023-07-22T06:11:53;95380.84;;;23.68;43.95
66486;BME280;53303;47.476;8.084;2023-07-22T06:14:19;95377.31;;;23.67;43.94
66486;BME280;53303;47.476;8.084;2023-07-22T06:16:47;95380.31;;;23.69;43.86
66486;BME280;53303;47.476;8.084;2023-07-22T06:19:12;95378.81;;;23.68;44.18
66486;BME280;53303;47.476;8.084;2023-07-22T06:21:38;95374.28;;;23.65;44.31
66486;BME280;53303;47.476;8.084;2023-07-22T06:24:06;95381.59;;;23.68;44.93
66486;BME280;53303;47.476;8.084;2023-07-22T06:26:35;95359.84;;;23.53;45.35
66486;BME280;53303;47.476;8.084;2023-07-22T06:29:03;95385.69;;;23.67;45.44
66486;BME280;53303;47.476;8.084;2023-07-22T06:31:28;95370.13;;;23.59;45.54
66486;BME280;53303;47.476;8.084;2023-07-22T06:33:57;95378.59;;;23.66;45.82
66486;BME280;53303;47.476;8.084;2023-07-22T06:36:25;95372.28;;;23.66;46.10
66486;BME280;53303;47.476;8.084;2023-07-22T06:38:53;95338.03;;;23.38;46.05
66486;BME280;53303;47.476;8.084;2023-07-22T06:41:20;95373.88;;;23.61;46.19
66486;BME280;53303;47.476;8.084;2023-07-22T06:43:45;95377.06;;;23.65;45.99
66486;BME280;53303;47.476;8.084;2023-07-22T06:46:13;95379.13;;;23.65;45.77
66486;BME280;53303;47.476;8.084;2023-07-22T06:48:39;95384.47;;;23.63;45.01
66486;BME280;53303;47.476;8.084;2023-07-22T06:51:04;95373.44;;;23.57;44.79
66486;BME280;53303;47.476;8.084;2023-07-22T06:53:32;95394.88;;;23.62;44.71
66486;BME280;53303;47.476;8.084;2023-07-22T06:55:57;95393.16;;;23.59;44.61
66486;BME280;53303;47.476;8.084;2023-07-22T06:58:23;95394.88;;;23.62;44.32
66486;BME280;53303;47.476;8.084;2023-07-22T07:00:53;95391.31;;;23.62;44.16
66486;BME280;53303;47.476;8.084;2023-07-22T07:03:18;95397.44;;;23.60;44.23
66486;BME280;53303;47.476;8.084;2023-07-22T07:05:44;95395.41;;;23.61;43.77
66486;BME280;53303;47.476;8.084;2023-07-22T07:08:09;95398.19;;;23.61;43.57
66486;BME280;53303;47.476;8.084;2023-07-22T07:10:38;95399.47;;;23.60;43.27
66486;BME280;53303;47.476;8.084;2023-07-22T07:13:04;95404.50;;;23.61;42.86
66486;BME280;53303;47.476;8.084;2023-07-22T07:15:30;95403.03;;;23.60;42.66
66486;BME280;53303;47.476;8.084;2023-07-22T07:17:55;95391.53;;;23.50;42.71
66486;BME280;53303;47.476;8.084;2023-07-22T07:20:25;95408.59;;;23.60;42.71
66486;BME280;53303;47.476;8.084;2023-07-22T07:22:51;95398.81;;;23.53;42.76
66486;BME280;53303;47.476;8.084;2023-07-22T07:25:16;95411.38;;;23.60;42.90
66486;BME280;53303;47.476;8.084;2023-07-22T07:27:41;95406.34;;;23.59;42.79
66486;BME280;53303;47.476;8.084;2023-07-22T07:30:07;95415.66;;;23.61;42.90
66486;BME280;53303;47.476;8.084;2023-07-22T07:32:36;95408.13;;;23.56;42.89
66486;BME280;53303;47.476;8.084;2023-07-22T07:35:01;95407.38;;;23.55;43.07
66486;BME280;53303;47.476;8.084;2023-07-22T07:37:29;95420.69;;;23.63;43.00
66486;BME280;53303;47.476;8.084;2023-07-22T07:39:54;95421.22;;;23.61;43.08
66486;BME280;53303;47.476;8.084;2023-07-22T07:42:25;95425.00;;;23.64;43.22
66486;BME280;53303;47.476;8.084;2023-07-22T07:44:50;95427.00;;;23.63;43.09
66486;BME280;53303;47.476;8.084;2023-07-22T07:47:15;95425.00;;;23.64;43.05
66486;BME280;53303;47.476;8.084;2023-07-22T07:49:41;95423.47;;;23.63;43.04
66486;BME280;53303;47.476;8.084;2023-07-22T07:52:06;95395.66;;;23.44;42.77
66486;BME280;53303;47.476;8.084;2023-07-22T07:54:32;95406.22;;;23.64;43.22
66486;BME280;53303;47.476;8.084;2023-07-22T07:56:57;95420.91;;;23.65;42.93
66486;BME280;53303;47.476;8.084;2023-07-22T07:59:25;95423.69;;;23.65;43.02
66486;BME280;53303;47.476;8.084;2023-07-22T08:01:51;95425.00;;;23.64;43.16
66486;BME280;53303;47.476;8.084;2023-07-22T08:04:16;95427.78;;;23.64;42.94
66486;BME280;53303;47.476;8.084;2023-07-22T08:06:45;95420.69;;;23.63;43.00
66486;BME280;53303;47.476;8.084;2023-07-22T08:09:12;95424.75;;;23.62;42.90
66486;BME280;53303;47.476;8.084;2023-07-22T08:11:43;95426.69;;;23.67;43.34
66486;BME280;53303;47.476;8.084;2023-07-22T08:14:09;95416.84;;;23.66;43.21
66486;BME280;53303;47.476;8.084;2023-07-22T08:16:35;95416.63;;;23.64;43.15
66486;BME280;53303;47.476;8.084;2023-07-22T08:19:00;95416.84;;;23.66;42.96
66486;BME280;53303;47.476;8.084;2023-07-22T08:21:29;95411.91;;;23.59;43.04
66486;BME280;53303;47.476;8.084;2023-07-22T08:23:57;95421.22;;;23.61;42.99
66486;BME280;53303;47.476;8.084;2023-07-22T08:26:23;95424.69;;;23.67;43.36
66486;BME280;53303;47.476;8.084;2023-07-22T08:28:48;95416.38;;;23.62;42.97
66486;BME280;53303;47.476;8.084;2023-07-22T08:31:13;95408.13;;;23.56;43.16
66486;BME280;53303;47.476;8.084;2023-07-22T08:33:39;95420.91;;;23.65;43.32
66486;BME280;53303;47.476;8.084;2023-07-22T08:36:07;95428.94;;;23.68;43.02
66486;BME280;53303;47.476;8.084;2023-07-22T08:38:32;95426.16;;;23.68;43.14
66486;BME280;53303;47.476;8.084;2023-07-22T08:40:58;95426.16;;;23.68;43.25
66486;BME280;53303;47.476;8.084;2023-07-22T08:43:23;95422.63;;;23.68;43.43
66486;BME280;53303;47.476;8.084;2023-07-22T08:45:52;95432.47;;;23.69;43.30
66486;BME280;53303;47.476;8.084;2023-07-22T08:48:18;95431.22;;;23.70;43.13
66486;BME280;53303;47.476;8.084;2023-07-22T08:53:19;95425.53;;;23.62;43.34
66486;BME280;53303;47.476;8.084;2023-07-22T08:55:48;95417.91;;;23.63;43.15
66486;BME280;53303;47.476;8.084;2023-07-22T08:58:14;95420.06;;;23.70;43.32
66486;BME280;53303;47.476;8.084;2023-07-22T09:00:41;95418.78;;;23.71;43.36
66486;BME280;53303;47.476;8.084;2023-07-22T09:03:07;95425.63;;;23.70;43.20
66486;BME280;53303;47.476;8.084;2023-07-22T09:05:36;95426.38;;;23.70;43.44
66486;BME280;53303;47.476;8.084;2023-07-22T09:08:06;95434.84;;;23.65;43.41
66486;BME280;53303;47.476;8.084;2023-07-22T09:10:32;95432.72;;;23.71;43.35
66486;BME280;53303;47.476;8.084;2023-07-22T09:13:00;95436.25;;;23.71;43.31
66486;BME280;53303;47.476;8.084;2023-07-22T09:15:26;95426.16;;;23.68;43.58
66486;BME280;53303;47.476;8.084;2023-07-22T09:17:55;95430.69;;;23.71;43.44
66486;BME280;53303;47.476;8.084;2023-07-22T09:20:21;95434.22;;;23.72;43.35
66486;BME280;53303;47.476;8.084;2023-07-22T09:22:48;95428.63;;;23.72;43.43
66486;BME280;53303;47.476;8.084;2023-07-22T09:27:40;95428.63;;;23.72;43.30
66486;BME280;53303;47.476;8.084;2023-07-22T09:30:26;95424.13;;;23.69;43.35
66486;BME280;53303;47.476;8.084;2023-07-22T09:32:54;95411.50;;;23.68;43.13
66486;BME280;53303;47.476;8.084;2023-07-22T09:35:20;95416.63;;;23.64;43.07
66486;BME280;53303;47.476;8.084;2023-07-22T09:37:46;95425.84;;;23.72;42.85
66486;BME280;53303;47.476;8.084;2023-07-22T09:42:47;95400.66;;;23.64;43.08
66486;BME280;53303;47.476;8.084;2023-07-22T09:45:12;95415.44;;;23.72;42.98
66486;BME280;53303;47.476;8.084;2023-07-22T09:47:42;95412.44;;;23.70;42.98
66486;BME280;53303;47.476;8.084;2023-07-22T09:50:21;95400.34;;;23.68;43.11
66486;BME280;53303;47.476;8.084;2023-07-22T09:52:51;95397.56;;;23.68;42.88
66486;BME280;53303;47.476;8.084;2023-07-22T09:55:28;95395.94;;;23.72;42.87
66486;BME280;53303;47.476;8.084;2023-07-22T09:58:13;95397.13;;;23.64;43.25
66486;BME280;53303;47.476;8.084;2023-07-22T10:00:42;95419.75;;;23.73;42.87
66486;BME280;53303;47.476;8.084;2023-07-22T10:03:15;95398.00;;;23.72;42.98
66486;BME280;53303;47.476;8.084;2023-07-22T10:05:41;95404.31;;;23.72;42.84
66486;BME280;53303;47.476;8.084;2023-07-22T10:08:08;95410.88;;;23.75;43.03
66486;BME280;53303;47.476;8.084;2023-07-22T10:10:37;95397.03;;;23.69;43.00
66486;BME280;53303;47.476;8.084;2023-07-22T10:13:03;95404.00;;;23.76;42.90
66486;BME280;53303;47.476;8.084;2023-07-22T10:15:31;95404.00;;;23.76;43.29
66486;BME280;53303;47.476;8.084;2023-07-22T10:18:00;95404.00;;;23.76;43.09
66486;BME280;53303;47.476;8.084;2023-07-22T10:20:26;95392.09;;;23.75;43.02
66486;BME280;53303;47.476;8.084;2023-07-22T10:22:54;95379.78;;;23.71;42.82
66486;BME280;53303;47.476;8.084;2023-07-22T10:25:21;95401.19;;;23.76;43.02
66486;BME280;53303;47.476;8.084;2023-07-22T10:27:51;95392.84;;;23.76;43.21
66486;BME280;53303;47.476;8.084;2023-07-22T10:30:17;95385.78;;;23.75;43.27
66486;BME280;53303;47.476;8.084;2023-07-22T10:32:52;95384.28;;;23.74;43.47
66486;BME280;53303;47.476;8.084;2023-07-22T10:38:06;95389.09;;;23.73;43.39
66486;BME280;53303;47.476;8.084;2023-07-22T10:40:32;95381.81;;;23.70;43.49
66486;BME280;53303;47.476;8.084;2023-07-22T10:43:09;95372.72;;;23.70;43.66
66486;BME280;53303;47.476;8.084;2023-07-22T10:45:42;95371.44;;;23.71;43.68
66486;BME280;53303;47.476;8.084;2023-07-22T10:48:12;95378.91;;;23.76;43.69
66486;BME280;53303;47.476;8.084;2023-07-22T10:50:49;95380.22;;;23.75;43.72
66486;BME280;53303;47.476;8.084;2023-07-22T10:53:28;95368.09;;;23.72;43.64
66486;BME280;53303;47.476;8.084;2023-07-22T11:06:53;95363.81;;;23.71;43.97
66486;BME280;53303;47.476;8.084;2023-07-22T11:12:17;95356.09;;;23.77;44.27
66486;BME280;53303;47.476;8.084;2023-07-22T11:15:01;95337.88;;;23.63;44.38
66486;BME280;53303;47.476;8.084;2023-07-22T11:17:31;95358.25;;;23.71;44.23
66486;BME280;53303;47.476;8.084;2023-07-22T11:19:58;95343.25;;;23.74;44.26
66486;BME280;53303;47.476;8.084;2023-07-22T11:22:24;95347.94;;;23.80;44.25
66486;BME280;53303;47.476;8.084;2023-07-22T11:24:52;95347.75;;;23.77;44.52
66486;BME280;53303;47.476;8.084;2023-07-22T11:27:20;95351.00;;;23.82;44.31
66486;BME280;53303;47.476;8.084;2023-07-22T11:29:48;95341.22;;;23.75;44.58
66486;BME280;53303;47.476;8.084;2023-07-22T11:32:18;95345.72;;;23.78;44.38
66486;BME280;53303;47.476;8.084;2023-07-22T11:34:44;95347.44;;;23.81;44.69
66486;BME280;53303;47.476;8.084;2023-07-22T11:37:10;95337.38;;;23.78;44.62
66486;BME280;53303;47.476;8.084;2023-07-22T11:39:36;95335.03;;;23.82;44.52
66486;BME280;53303;47.476;8.084;2023-07-22T11:42:03;95327.28;;;23.75;44.49
66486;BME280;53303;47.476;8.084;2023-07-22T11:44:30;95342.13;;;23.83;44.59
66486;BME280;53303;47.476;8.084;2023-07-22T11:52:05;95325.94;;;23.82;44.79
66486;BME280;53303;47.476;8.084;2023-07-22T11:54:34;95332.47;;;23.84;44.65
66486;BME280;53303;47.476;8.084;2023-07-22T11:59:38;95310.03;;;23.76;44.83
66486;BME280;53303;47.476;8.084;2023-07-22T12:02:04;95318.09;;;23.80;44.93
66486;BME280;53303;47.476;8.084;2023-07-22T12:04:30;95312.41;;;23.86;44.69
66486;BME280;53303;47.476;8.084;2023-07-22T12:06:56;95312.41;;;23.86;44.91
66486;BME280;53303;47.476;8.084;2023-07-22T12:09:22;95324.31;;;23.86;44.85
66486;BME280;53303;47.476;8.084;2023-07-22T12:11:55;95321.31;;;23.84;44.78
66486;BME280;53303;47.476;8.084;2023-07-22T12:14:20;95297.91;;;23.74;44.85
66486;BME280;53303;47.476;8.084;2023-07-22T12:16:53;95319.50;;;23.87;44.77
66486;BME280;53303;47.476;8.084;2023-07-22T12:19:20;95309.63;;;23.86;44.90
66486;BME280;53303;47.476;8.084;2023-07-22T12:21:47;95318.72;;;23.86;44.88
66486;BME280;53303;47.476;8.084;2023-07-22T12:24:15;95325.06;;;23.87;45.12
66486;BME280;53303;47.476;8.084;2023-07-22T12:26:44;95292.03;;;23.64;45.21
66486;BME280;53303;47.476;8.084;2023-07-22T12:29:09;95317.03;;;23.83;45.21
66486;BME280;53303;47.476;8.084;2023-07-22T12:31:34;95317.03;;;23.83;45.43
66486;BME280;53303;47.476;8.084;2023-07-22T12:34:00;95318.19;;;23.88;45.85
66486;BME280;53303;47.476;8.084;2023-07-22T12:36:25;95321.00;;;23.88;45.95
66486;BME280;53303;47.476;8.084;2023-07-22T12:38:51;95313.56;;;23.77;45.89
66486;BME280;53303;47.476;8.084;2023-07-22T12:41:19;95326.03;;;23.89;45.67
66486;BME280;53303;47.476;8.084;2023-07-22T12:43:46;95326.56;;;23.88;46.12
66486;BME280;53303;47.476;8.084;2023-07-22T12:46:14;95317.66;;;23.89;45.92
66486;BME280;53303;47.476;8.084;2023-07-22T12:48:39;95309.97;;;23.82;46.08
66486;BME280;53303;47.476;8.084;2023-07-22T12:51:05;95315.63;;;23.90;45.69
66486;BME280;53303;47.476;8.084;2023-07-22T12:53:30;95301.47;;;23.88;45.80
66486;BME280;53303;47.476;8.084;2023-07-22T12:55:55;95294.44;;;23.87;45.71
66486;BME280;53303;47.476;8.084;2023-07-22T12:58:21;95303.53;;;23.87;45.63
66486;BME280;53303;47.476;8.084;2023-07-22T13:00:46;95301.16;;;23.91;45.59
66486;BME280;53303;47.476;8.084;2023-07-22T13:03:12;95296.13;;;23.90;45.68
66486;BME280;53303;47.476;8.084;2023-07-22T13:05:40;95307.72;;;23.94;45.70
66486;BME280;53303;47.476;8.084;2023-07-22T13:08:05;95297.84;;;23.93;45.80
66486;BME280;53303;47.476;8.084;2023-07-22T13:10:31;95288.75;;;23.92;45.64
66486;BME280;53303;47.476;8.084;2023-07-22T13:12:58;95283.16;;;23.92;45.61
66486;BME280;53303;47.476;8.084;2023-07-22T13:15:23;95282.84;;;23.96;45.63
66486;BME280;53303;47.476;8.084;2023-07-22T13:17:49;95289.91;;;23.97;45.58
66486;BME280;53303;47.476;8.084;2023-07-22T13:20:14;95285.94;;;23.92;45.70
66486;BME280;53303;47.476;8.084;2023-07-22T13:22:40;95292.88;;;23.99;45.51
66486;BME280;53303;47.476;8.084;2023-07-22T13:25:08;95292.16;;;23.99;45.69
66486;BME280;53303;47.476;8.084;2023-07-22T13:27:34;95274.81;;;23.92;45.85
66486;BME280;53303;47.476;8.084;2023-07-22T13:30:02;95284.00;;;24.01;45.92